DAL4133 KASE-KLAX
Flight info
| Callsign | DAL4133 |
|---|---|
| Flight time | 1h 53m |
| Altitude | 38000 |
| Route | LINDZ JNC PEEWE Q98 HAKMN ANJLL4 |
| Aircraft | A319/M-SDE3FGHIRWY/LB1 |
Departure
| Time | 2026-04-25 23:36 |
|---|---|
| Airport | Aspen-Pitkin County Airport (Sardy Field) (KASE) |
Arrival
| Time | 2026-04-26 01:29 |
|---|---|
| Airport | Los Angeles International Airport (KLAX) |
| Time | Latitude | Longitude | Altitude | Speed | Heading |
|---|---|---|---|---|---|
| 2026-04-25 23:06 | 39.21878 | -106.86433 | 7798 ft | 0 kts | 75° |
| 2026-04-25 23:28 | 39.21876 | -106.86446 | 7798 ft | 4 kts | 75° |
| 2026-04-25 23:28 | 39.21869 | -106.86479 | 7798 ft | 4 kts | 85° |
| 2026-04-25 23:29 | 39.21870 | -106.86506 | 7797 ft | 1 kts | 116° |
| 2026-04-25 23:32 | 39.21860 | -106.86494 | 7798 ft | 6 kts | 143° |
| 2026-04-25 23:33 | 39.21839 | -106.86485 | 7800 ft | 4 kts | 167° |
| 2026-04-25 23:33 | 39.21792 | -106.86496 | 7803 ft | 8 kts | 192° |
| 2026-04-25 23:33 | 39.21743 | -106.86496 | 7806 ft | 6 kts | 163° |
| 2026-04-25 23:33 | 39.21706 | -106.86479 | 7809 ft | 6 kts | 159° |
| 2026-04-25 23:34 | 39.21658 | -106.86452 | 7813 ft | 9 kts | 156° |
| 2026-04-25 23:34 | 39.21593 | -106.86419 | 7818 ft | 11 kts | 160° |
| 2026-04-25 23:34 | 39.21511 | -106.86381 | 7824 ft | 14 kts | 160° |
| 2026-04-25 23:34 | 39.21411 | -106.86336 | 7828 ft | 16 kts | 161° |
| 2026-04-25 23:35 | 39.21298 | -106.86283 | 7841 ft | 18 kts | 159° |
| 2026-04-25 23:35 | 39.21196 | -106.86267 | 7842 ft | 14 kts | 214° |
| 2026-04-25 23:35 | 39.21233 | -106.86368 | 7844 ft | 21 kts | 336° |
| 2026-04-25 23:35 | 39.21516 | -106.86505 | 7827 ft | 78 kts | 340° |
| 2026-04-25 23:36 | 39.22245 | -106.86852 | 7760 ft | 143 kts | 340° |
| 2026-04-25 23:36 | 39.23332 | -106.87370 | 7863 ft | 175 kts | 339° |
| 2026-04-25 23:36 | 39.24460 | -106.87877 | 8512 ft | 174 kts | 339° |
| 2026-04-25 23:36 | 39.25631 | -106.88405 | 9079 ft | 181 kts | 337° |
| 2026-04-25 23:37 | 39.26763 | -106.89129 | 9664 ft | 180 kts | 315° |
| 2026-04-25 23:37 | 39.27448 | -106.90489 | 9957 ft | 189 kts | 284° |
| 2026-04-25 23:37 | 39.27780 | -106.92221 | 10160 ft | 209 kts | 282° |
| 2026-04-25 23:37 | 39.28129 | -106.94141 | 10351 ft | 231 kts | 281° |
| 2026-04-25 23:38 | 39.28510 | -106.96268 | 10559 ft | 254 kts | 282° |
| 2026-04-25 23:38 | 39.28926 | -106.98592 | 10750 ft | 278 kts | 281° |
| 2026-04-25 23:38 | 39.29388 | -107.01116 | 11012 ft | 302 kts | 281° |
| 2026-04-25 23:38 | 39.29900 | -107.03862 | 11298 ft | 324 kts | 281° |
| 2026-04-25 23:39 | 39.30437 | -107.06728 | 11917 ft | 332 kts | 282° |
| 2026-04-25 23:39 | 39.31365 | -107.09433 | 12644 ft | 339 kts | 301° |
| 2026-04-25 23:39 | 39.33036 | -107.11618 | 13390 ft | 350 kts | 322° |
| 2026-04-25 23:39 | 39.35170 | -107.13191 | 14157 ft | 354 kts | 328° |
| 2026-04-25 23:40 | 39.37290 | -107.14815 | 14888 ft | 353 kts | 318° |
| 2026-04-25 23:40 | 39.38810 | -107.17241 | 15527 ft | 347 kts | 291° |
| 2026-04-25 23:40 | 39.39331 | -107.20227 | 15935 ft | 340 kts | 266° |
| 2026-04-25 23:40 | 39.38833 | -107.23194 | 16556 ft | 340 kts | 249° |
| 2026-04-25 23:41 | 39.37905 | -107.26012 | 17221 ft | 341 kts | 245° |
| 2026-04-25 23:41 | 39.36924 | -107.28802 | 17840 ft | 343 kts | 245° |
| 2026-04-25 23:41 | 39.35933 | -107.31623 | 18483 ft | 345 kts | 245° |
| 2026-04-25 23:41 | 39.35070 | -107.34529 | 19054 ft | 348 kts | 252° |
| 2026-04-25 23:42 | 39.34401 | -107.37547 | 19667 ft | 350 kts | 255° |
| 2026-04-25 23:42 | 39.33838 | -107.40613 | 20278 ft | 353 kts | 256° |
| 2026-04-25 23:42 | 39.33306 | -107.43717 | 20897 ft | 354 kts | 257° |
| 2026-04-25 23:42 | 39.32767 | -107.46827 | 21477 ft | 356 kts | 256° |
| 2026-04-25 23:43 | 39.32203 | -107.49942 | 22032 ft | 358 kts | 256° |
| 2026-04-25 23:43 | 39.31612 | -107.53086 | 22621 ft | 359 kts | 255° |
| 2026-04-25 23:43 | 39.31009 | -107.56176 | 23169 ft | 361 kts | 255° |
| 2026-04-25 23:43 | 39.30386 | -107.59310 | 23683 ft | 360 kts | 255° |
| 2026-04-25 23:44 | 39.29757 | -107.62461 | 24115 ft | 364 kts | 255° |
| 2026-04-25 23:44 | 39.29123 | -107.65633 | 24568 ft | 366 kts | 255° |
| 2026-04-25 23:44 | 39.28478 | -107.68829 | 25071 ft | 369 kts | 255° |
| 2026-04-25 23:44 | 39.27824 | -107.72045 | 25581 ft | 371 kts | 256° |
| 2026-04-25 23:45 | 39.27184 | -107.75264 | 26066 ft | 371 kts | 256° |
| 2026-04-25 23:45 | 39.26545 | -107.78495 | 26515 ft | 370 kts | 256° |
| 2026-04-25 23:45 | 39.25908 | -107.81714 | 26895 ft | 371 kts | 256° |
| 2026-04-25 23:45 | 39.25269 | -107.84946 | 27290 ft | 373 kts | 256° |
| 2026-04-25 23:46 | 39.24624 | -107.88184 | 27695 ft | 373 kts | 256° |
| 2026-04-25 23:46 | 39.23980 | -107.91399 | 28088 ft | 374 kts | 256° |
| 2026-04-25 23:46 | 39.23314 | -107.94703 | 28475 ft | 376 kts | 256° |
| 2026-04-25 23:46 | 39.22666 | -107.97934 | 28845 ft | 377 kts | 256° |
| 2026-04-25 23:47 | 39.22006 | -108.01219 | 29230 ft | 378 kts | 256° |
| 2026-04-25 23:47 | 39.21341 | -108.04501 | 29586 ft | 379 kts | 255° |
| 2026-04-25 23:47 | 39.20672 | -108.07785 | 29911 ft | 380 kts | 255° |
| 2026-04-25 23:47 | 39.19999 | -108.11099 | 30225 ft | 382 kts | 256° |
| 2026-04-25 23:48 | 39.19327 | -108.14414 | 30547 ft | 383 kts | 255° |
| 2026-04-25 23:48 | 39.18651 | -108.17749 | 30869 ft | 384 kts | 256° |
| 2026-04-25 23:48 | 39.17975 | -108.21082 | 31168 ft | 385 kts | 255° |
| 2026-04-25 23:48 | 39.17293 | -108.24431 | 31450 ft | 386 kts | 255° |
| 2026-04-25 23:49 | 39.16608 | -108.27780 | 31732 ft | 387 kts | 255° |
| 2026-04-25 23:49 | 39.15922 | -108.31130 | 32107 ft | 386 kts | 255° |
| 2026-04-25 23:49 | 39.15239 | -108.34464 | 32516 ft | 383 kts | 255° |
| 2026-04-25 23:49 | 39.14556 | -108.37788 | 32901 ft | 382 kts | 255° |
| 2026-04-25 23:50 | 39.13879 | -108.41078 | 33305 ft | 379 kts | 255° |
| 2026-04-25 23:50 | 39.13206 | -108.44350 | 33702 ft | 377 kts | 255° |
| 2026-04-25 23:50 | 39.12534 | -108.47612 | 34088 ft | 375 kts | 255° |
| 2026-04-25 23:50 | 39.11866 | -108.50846 | 34456 ft | 373 kts | 255° |
| 2026-04-25 23:51 | 39.11201 | -108.54080 | 34774 ft | 372 kts | 255° |
| 2026-04-25 23:51 | 39.10537 | -108.57301 | 35049 ft | 372 kts | 255° |
| 2026-04-25 23:51 | 39.09871 | -108.60518 | 35307 ft | 372 kts | 255° |
| 2026-04-25 23:51 | 39.09211 | -108.63692 | 35533 ft | 372 kts | 255° |
| 2026-04-25 23:52 | 39.08539 | -108.66904 | 35755 ft | 372 kts | 255° |
| 2026-04-25 23:52 | 39.07866 | -108.70124 | 35999 ft | 371 kts | 255° |
| 2026-04-25 23:52 | 39.07198 | -108.73330 | 36227 ft | 371 kts | 255° |
| 2026-04-25 23:52 | 39.06493 | -108.76520 | 36434 ft | 371 kts | 251° |
| 2026-04-25 23:53 | 39.05397 | -108.79537 | 36622 ft | 374 kts | 242° |
| 2026-04-25 23:53 | 39.03853 | -108.82242 | 36834 ft | 379 kts | 232° |
| 2026-04-25 23:53 | 39.02071 | -108.84739 | 37088 ft | 377 kts | 232° |
| 2026-04-25 23:53 | 39.00299 | -108.87219 | 37362 ft | 375 kts | 232° |
| 2026-04-25 23:54 | 38.98543 | -108.89687 | 37637 ft | 373 kts | 232° |
| 2026-04-25 23:54 | 38.96795 | -108.92151 | 37863 ft | 373 kts | 232° |
| 2026-04-25 23:54 | 38.95050 | -108.94610 | 37947 ft | 372 kts | 232° |
| 2026-04-25 23:55 | 38.91568 | -108.99503 | 37946 ft | 370 kts | 232° |
| 2026-04-25 23:55 | 38.88084 | -109.04370 | 37923 ft | 370 kts | 232° |
| 2026-04-25 23:56 | 38.84627 | -109.09200 | 37907 ft | 370 kts | 232° |
| 2026-04-25 23:56 | 38.81146 | -109.14059 | 37891 ft | 370 kts | 232° |
| 2026-04-25 23:57 | 38.77668 | -109.18913 | 37889 ft | 370 kts | 232° |
| 2026-04-25 23:57 | 38.74180 | -109.23768 | 37889 ft | 370 kts | 232° |
| 2026-04-25 23:58 | 38.70687 | -109.28615 | 37884 ft | 370 kts | 232° |
| 2026-04-25 23:58 | 38.67202 | -109.33462 | 37872 ft | 369 kts | 232° |
| 2026-04-25 23:59 | 38.63719 | -109.38295 | 37858 ft | 369 kts | 232° |
| 2026-04-25 23:59 | 38.60237 | -109.43102 | 37853 ft | 369 kts | 232° |
| 2026-04-26 00:00 | 38.56747 | -109.47911 | 37849 ft | 369 kts | 232° |
| 2026-04-26 00:00 | 38.53265 | -109.52720 | 37844 ft | 368 kts | 232° |
| 2026-04-26 00:01 | 38.49795 | -109.57506 | 37844 ft | 369 kts | 232° |
| 2026-04-26 00:01 | 38.46302 | -109.62301 | 37840 ft | 369 kts | 232° |
| 2026-04-26 00:02 | 38.42801 | -109.67092 | 37839 ft | 369 kts | 232° |
| 2026-04-26 00:02 | 38.39315 | -109.71879 | 37840 ft | 368 kts | 232° |
| 2026-04-26 00:03 | 38.35828 | -109.76664 | 37841 ft | 368 kts | 232° |
| 2026-04-26 00:03 | 38.32340 | -109.81440 | 37837 ft | 368 kts | 232° |
| 2026-04-26 00:04 | 38.28851 | -109.86201 | 37838 ft | 368 kts | 232° |
| 2026-04-26 00:04 | 38.25353 | -109.90953 | 37839 ft | 367 kts | 232° |
| 2026-04-26 00:05 | 38.21867 | -109.95685 | 37837 ft | 367 kts | 231° |
| 2026-04-26 00:05 | 38.18376 | -110.00424 | 37834 ft | 366 kts | 232° |
| 2026-04-26 00:06 | 38.14915 | -110.05123 | 37829 ft | 367 kts | 231° |
| 2026-04-26 00:06 | 38.11415 | -110.09862 | 37814 ft | 368 kts | 231° |
| 2026-04-26 00:07 | 38.07905 | -110.14605 | 37809 ft | 369 kts | 231° |
| 2026-04-26 00:07 | 38.04388 | -110.19349 | 37802 ft | 370 kts | 231° |
| 2026-04-26 00:08 | 38.00863 | -110.24110 | 37801 ft | 370 kts | 231° |
| 2026-04-26 00:08 | 37.97337 | -110.28864 | 37797 ft | 370 kts | 231° |
| 2026-04-26 00:09 | 37.93802 | -110.33607 | 37795 ft | 370 kts | 231° |
| 2026-04-26 00:09 | 37.90268 | -110.38348 | 37797 ft | 370 kts | 231° |
| 2026-04-26 00:10 | 37.86735 | -110.43090 | 37800 ft | 370 kts | 231° |
| 2026-04-26 00:10 | 37.83206 | -110.47818 | 37799 ft | 369 kts | 231° |
| 2026-04-26 00:11 | 37.79698 | -110.52506 | 37797 ft | 369 kts | 231° |
| 2026-04-26 00:11 | 37.76164 | -110.57216 | 37795 ft | 369 kts | 231° |
| 2026-04-26 00:12 | 37.72634 | -110.61914 | 37789 ft | 369 kts | 231° |
| 2026-04-26 00:12 | 37.69093 | -110.66609 | 37786 ft | 369 kts | 231° |
| 2026-04-26 00:13 | 37.65566 | -110.71298 | 37781 ft | 368 kts | 231° |
| 2026-04-26 00:13 | 37.62035 | -110.75977 | 37774 ft | 368 kts | 231° |
| 2026-04-26 00:14 | 37.59100 | -110.79863 | 37768 ft | 368 kts | 231° |
| 2026-04-26 00:14 | 37.55569 | -110.84535 | 37764 ft | 367 kts | 231° |
| 2026-04-26 00:15 | 37.52043 | -110.89190 | 37767 ft | 367 kts | 231° |
| 2026-04-26 00:15 | 37.48521 | -110.93837 | 37769 ft | 367 kts | 230° |
| 2026-04-26 00:16 | 37.44993 | -110.98488 | 37770 ft | 367 kts | 230° |
| 2026-04-26 00:16 | 37.41493 | -111.03097 | 37772 ft | 366 kts | 230° |
| 2026-04-26 00:17 | 37.37973 | -111.07713 | 37775 ft | 366 kts | 230° |
| 2026-04-26 00:17 | 37.34436 | -111.12336 | 37786 ft | 366 kts | 230° |
| 2026-04-26 00:18 | 37.30916 | -111.16954 | 37786 ft | 366 kts | 230° |
| 2026-04-26 00:18 | 37.27390 | -111.21571 | 37788 ft | 366 kts | 230° |
| 2026-04-26 00:19 | 37.23875 | -111.26167 | 37790 ft | 365 kts | 230° |
| 2026-04-26 00:19 | 37.20355 | -111.30752 | 37792 ft | 365 kts | 230° |
| 2026-04-26 00:20 | 37.16848 | -111.35294 | 37791 ft | 364 kts | 230° |
| 2026-04-26 00:20 | 37.13324 | -111.39861 | 37789 ft | 364 kts | 230° |
| 2026-04-26 00:21 | 37.09813 | -111.44438 | 37791 ft | 364 kts | 230° |
| 2026-04-26 00:21 | 37.06274 | -111.49045 | 37795 ft | 371 kts | 230° |
| 2026-04-26 00:22 | 37.02638 | -111.53749 | 37791 ft | 381 kts | 230° |
| 2026-04-26 00:22 | 36.98927 | -111.58526 | 37785 ft | 384 kts | 230° |
| 2026-04-26 00:23 | 36.96038 | -111.64013 | 37794 ft | 378 kts | 249° |
| 2026-04-26 00:23 | 36.94223 | -111.70188 | 37791 ft | 378 kts | 250° |
| 2026-04-26 00:24 | 36.92371 | -111.76349 | 37789 ft | 377 kts | 249° |
| 2026-04-26 00:24 | 36.90521 | -111.82486 | 37796 ft | 378 kts | 249° |
| 2026-04-26 00:25 | 36.88688 | -111.88587 | 37806 ft | 378 kts | 249° |
| 2026-04-26 00:25 | 36.86838 | -111.94734 | 37816 ft | 378 kts | 249° |
| 2026-04-26 00:26 | 36.84989 | -112.00881 | 37827 ft | 378 kts | 249° |
| 2026-04-26 00:26 | 36.83123 | -112.07034 | 37835 ft | 379 kts | 249° |
| 2026-04-26 00:27 | 36.81256 | -112.13183 | 37843 ft | 379 kts | 249° |
| 2026-04-26 00:27 | 36.79385 | -112.19333 | 37858 ft | 379 kts | 249° |
| 2026-04-26 00:28 | 36.77521 | -112.25474 | 37869 ft | 378 kts | 249° |
| 2026-04-26 00:28 | 36.75640 | -112.31609 | 37883 ft | 379 kts | 249° |
| 2026-04-26 00:29 | 36.73769 | -112.37705 | 37893 ft | 379 kts | 249° |
| 2026-04-26 00:29 | 36.71888 | -112.43838 | 37893 ft | 379 kts | 249° |
| 2026-04-26 00:30 | 36.70012 | -112.49976 | 37899 ft | 378 kts | 249° |
| 2026-04-26 00:30 | 36.68125 | -112.56113 | 37906 ft | 378 kts | 248° |
| 2026-04-26 00:31 | 36.66247 | -112.62195 | 37909 ft | 378 kts | 248° |
| 2026-04-26 00:31 | 36.64349 | -112.68330 | 37913 ft | 379 kts | 248° |
| 2026-04-26 00:32 | 36.62450 | -112.74451 | 37914 ft | 379 kts | 248° |
| 2026-04-26 00:32 | 36.59594 | -112.83637 | 37916 ft | 380 kts | 248° |
| 2026-04-26 00:33 | 36.57685 | -112.89764 | 37917 ft | 379 kts | 248° |
| 2026-04-26 00:33 | 36.55789 | -112.95884 | 37913 ft | 379 kts | 248° |
| 2026-04-26 00:34 | 36.53881 | -113.02013 | 37913 ft | 380 kts | 248° |
| 2026-04-26 00:34 | 36.51962 | -113.08139 | 37906 ft | 380 kts | 248° |
| 2026-04-26 00:35 | 36.50037 | -113.14270 | 37897 ft | 381 kts | 248° |
| 2026-04-26 00:35 | 36.48106 | -113.20396 | 37890 ft | 381 kts | 248° |
| 2026-04-26 00:36 | 36.46174 | -113.26516 | 37885 ft | 381 kts | 248° |
| 2026-04-26 00:36 | 36.44245 | -113.32609 | 37879 ft | 381 kts | 248° |
| 2026-04-26 00:37 | 36.42302 | -113.38725 | 37876 ft | 381 kts | 248° |
| 2026-04-26 00:37 | 36.40283 | -113.44805 | 37866 ft | 380 kts | 245° |
| 2026-04-26 00:38 | 36.38048 | -113.50750 | 37863 ft | 380 kts | 244° |
| 2026-04-26 00:38 | 36.35773 | -113.56674 | 37856 ft | 380 kts | 244° |
| 2026-04-26 00:39 | 36.33523 | -113.62600 | 37848 ft | 380 kts | 244° |
| 2026-04-26 00:39 | 36.31281 | -113.68556 | 37843 ft | 381 kts | 244° |
| 2026-04-26 00:40 | 36.29063 | -113.74486 | 37843 ft | 381 kts | 244° |
| 2026-04-26 00:40 | 36.26829 | -113.80462 | 37841 ft | 381 kts | 244° |
| 2026-04-26 00:41 | 36.24594 | -113.86423 | 37840 ft | 381 kts | 244° |
| 2026-04-26 00:41 | 36.22342 | -113.92369 | 37841 ft | 381 kts | 244° |
| 2026-04-26 00:42 | 36.20084 | -113.98315 | 37799 ft | 381 kts | 244° |
| 2026-04-26 00:42 | 36.17852 | -114.04214 | 37786 ft | 381 kts | 244° |
| 2026-04-26 00:43 | 36.15607 | -114.10140 | 37779 ft | 381 kts | 244° |
| 2026-04-26 00:43 | 36.13350 | -114.16064 | 37774 ft | 380 kts | 244° |
| 2026-04-26 00:44 | 36.11091 | -114.21997 | 37771 ft | 381 kts | 244° |
| 2026-04-26 00:44 | 36.08769 | -114.27887 | 37766 ft | 381 kts | 239° |
| 2026-04-26 00:45 | 36.05421 | -114.32963 | 37763 ft | 382 kts | 230° |
| 2026-04-26 00:45 | 36.01883 | -114.37858 | 37760 ft | 382 kts | 230° |
| 2026-04-26 00:46 | 35.98369 | -114.42722 | 37765 ft | 382 kts | 230° |
| 2026-04-26 00:46 | 35.94834 | -114.47619 | 37763 ft | 382 kts | 230° |
| 2026-04-26 00:47 | 35.91289 | -114.52509 | 37768 ft | 381 kts | 230° |
| 2026-04-26 00:47 | 35.87755 | -114.57378 | 37770 ft | 381 kts | 230° |
| 2026-04-26 00:48 | 35.84209 | -114.62260 | 37768 ft | 381 kts | 230° |
| 2026-04-26 00:48 | 35.80689 | -114.67104 | 37767 ft | 381 kts | 230° |
| 2026-04-26 00:49 | 35.77149 | -114.71959 | 37765 ft | 381 kts | 230° |
| 2026-04-26 00:49 | 35.73615 | -114.76813 | 37767 ft | 381 kts | 230° |
| 2026-04-26 00:50 | 35.70065 | -114.81667 | 37766 ft | 381 kts | 230° |
| 2026-04-26 00:50 | 35.66516 | -114.86514 | 37765 ft | 381 kts | 230° |
| 2026-04-26 00:51 | 35.62964 | -114.91370 | 37767 ft | 382 kts | 230° |
| 2026-04-26 00:51 | 35.59415 | -114.96225 | 37769 ft | 381 kts | 230° |
| 2026-04-26 00:52 | 35.55896 | -115.01042 | 37775 ft | 381 kts | 230° |
| 2026-04-26 00:52 | 35.52348 | -115.05878 | 37775 ft | 381 kts | 230° |
| 2026-04-26 00:53 | 35.48782 | -115.10680 | 37776 ft | 381 kts | 229° |
| 2026-04-26 00:53 | 35.45152 | -115.15417 | 37778 ft | 381 kts | 229° |
| 2026-04-26 00:54 | 35.41511 | -115.20138 | 37772 ft | 381 kts | 229° |
| 2026-04-26 00:54 | 35.37881 | -115.24865 | 37770 ft | 380 kts | 229° |
| 2026-04-26 00:55 | 35.34259 | -115.29583 | 37766 ft | 380 kts | 229° |
| 2026-04-26 00:55 | 35.30634 | -115.34292 | 37765 ft | 380 kts | 229° |
| 2026-04-26 00:56 | 35.27006 | -115.38994 | 37763 ft | 380 kts | 229° |
| 2026-04-26 00:56 | 35.23376 | -115.43701 | 37769 ft | 380 kts | 229° |
| 2026-04-26 00:57 | 35.19749 | -115.48402 | 37778 ft | 380 kts | 229° |
| 2026-04-26 00:57 | 35.16122 | -115.53094 | 37780 ft | 380 kts | 229° |
| 2026-04-26 00:58 | 35.12487 | -115.57787 | 37785 ft | 380 kts | 229° |
| 2026-04-26 00:58 | 35.08868 | -115.62438 | 37792 ft | 380 kts | 229° |
| 2026-04-26 00:59 | 35.05216 | -115.67101 | 37801 ft | 380 kts | 228° |
| 2026-04-26 00:59 | 35.01560 | -115.71760 | 37814 ft | 380 kts | 228° |
| 2026-04-26 01:00 | 34.97907 | -115.76416 | 37814 ft | 380 kts | 228° |
| 2026-04-26 01:00 | 34.94255 | -115.81070 | 37814 ft | 379 kts | 228° |
| 2026-04-26 01:01 | 34.90606 | -115.85719 | 37818 ft | 379 kts | 228° |
| 2026-04-26 01:01 | 34.86954 | -115.90354 | 37823 ft | 379 kts | 228° |
| 2026-04-26 01:02 | 34.83297 | -115.94993 | 37826 ft | 379 kts | 228° |
| 2026-04-26 01:02 | 34.80263 | -115.98837 | 37830 ft | 379 kts | 228° |
| 2026-04-26 01:03 | 34.76602 | -116.03461 | 37833 ft | 379 kts | 228° |
| 2026-04-26 01:03 | 34.72951 | -116.08103 | 37833 ft | 380 kts | 228° |
| 2026-04-26 01:04 | 34.69308 | -116.12761 | 37837 ft | 380 kts | 228° |
| 2026-04-26 01:04 | 34.65655 | -116.17420 | 37609 ft | 382 kts | 228° |
| 2026-04-26 01:05 | 34.63829 | -116.19734 | 37338 ft | 379 kts | 228° |
| 2026-04-26 01:05 | 34.61997 | -116.22055 | 37087 ft | 378 kts | 228° |
| 2026-04-26 01:05 | 34.60182 | -116.24358 | 36842 ft | 378 kts | 228° |
| 2026-04-26 01:05 | 34.58367 | -116.26660 | 36588 ft | 376 kts | 228° |
| 2026-04-26 01:06 | 34.56566 | -116.28942 | 36338 ft | 373 kts | 228° |
| 2026-04-26 01:06 | 34.54793 | -116.31188 | 36090 ft | 373 kts | 228° |
| 2026-04-26 01:06 | 34.52991 | -116.33469 | 35841 ft | 375 kts | 228° |
| 2026-04-26 01:06 | 34.51177 | -116.35755 | 35585 ft | 377 kts | 228° |
| 2026-04-26 01:07 | 34.49353 | -116.38057 | 35335 ft | 379 kts | 228° |
| 2026-04-26 01:07 | 34.47527 | -116.40361 | 35081 ft | 380 kts | 228° |
| 2026-04-26 01:07 | 34.45690 | -116.42681 | 34715 ft | 382 kts | 228° |
| 2026-04-26 01:07 | 34.43848 | -116.45004 | 33965 ft | 381 kts | 228° |
| 2026-04-26 01:08 | 34.42091 | -116.47390 | 33343 ft | 380 kts | 234° |
| 2026-04-26 01:08 | 34.40706 | -116.50109 | 32767 ft | 381 kts | 242° |
| 2026-04-26 01:08 | 34.39522 | -116.53001 | 32155 ft | 384 kts | 242° |
| 2026-04-26 01:08 | 34.38333 | -116.55907 | 31555 ft | 387 kts | 242° |
| 2026-04-26 01:09 | 34.37130 | -116.58841 | 30952 ft | 390 kts | 242° |
| 2026-04-26 01:09 | 34.35911 | -116.61799 | 30351 ft | 394 kts | 242° |
| 2026-04-26 01:09 | 34.34682 | -116.64771 | 29761 ft | 397 kts | 242° |
| 2026-04-26 01:09 | 34.33440 | -116.67773 | 29149 ft | 401 kts | 242° |
| 2026-04-26 01:10 | 34.32200 | -116.70806 | 28541 ft | 404 kts | 243° |
| 2026-04-26 01:10 | 34.30962 | -116.73878 | 27927 ft | 408 kts | 243° |
| 2026-04-26 01:10 | 34.29721 | -116.76985 | 27333 ft | 411 kts | 243° |
| 2026-04-26 01:10 | 34.28474 | -116.80117 | 26733 ft | 416 kts | 243° |
| 2026-04-26 01:11 | 34.27210 | -116.83278 | 26145 ft | 419 kts | 243° |
| 2026-04-26 01:11 | 34.25933 | -116.86457 | 25557 ft | 422 kts | 242° |
| 2026-04-26 01:11 | 34.24639 | -116.89662 | 24976 ft | 426 kts | 242° |
| 2026-04-26 01:11 | 34.23330 | -116.92896 | 24386 ft | 429 kts | 242° |
| 2026-04-26 01:12 | 34.22016 | -116.96137 | 23788 ft | 432 kts | 242° |
| 2026-04-26 01:12 | 34.20810 | -116.99487 | 23153 ft | 437 kts | 249° |
| 2026-04-26 01:12 | 34.19841 | -117.02972 | 22501 ft | 436 kts | 249° |
| 2026-04-26 01:12 | 34.18913 | -117.06397 | 21905 ft | 433 kts | 250° |
| 2026-04-26 01:13 | 34.17997 | -117.09835 | 21166 ft | 426 kts | 250° |
| 2026-04-26 01:13 | 34.17092 | -117.13237 | 20661 ft | 423 kts | 250° |
| 2026-04-26 01:13 | 34.16203 | -117.16570 | 20411 ft | 399 kts | 250° |
| 2026-04-26 01:13 | 34.15388 | -117.19590 | 20253 ft | 369 kts | 249° |
| 2026-04-26 01:14 | 34.14615 | -117.22425 | 20085 ft | 343 kts | 249° |
| 2026-04-26 01:14 | 34.13875 | -117.25108 | 19523 ft | 330 kts | 249° |
| 2026-04-26 01:14 | 34.13150 | -117.27708 | 18749 ft | 324 kts | 249° |
| 2026-04-26 01:14 | 34.12432 | -117.30275 | 17932 ft | 320 kts | 249° |
| 2026-04-26 01:15 | 34.11724 | -117.32804 | 17122 ft | 317 kts | 249° |
| 2026-04-26 01:15 | 34.11022 | -117.35332 | 16589 ft | 317 kts | 249° |
| 2026-04-26 01:15 | 34.10327 | -117.37860 | 16141 ft | 318 kts | 249° |
| 2026-04-26 01:15 | 34.09668 | -117.40399 | 15681 ft | 316 kts | 250° |
| 2026-04-26 01:16 | 34.09036 | -117.42935 | 15275 ft | 313 kts | 250° |
| 2026-04-26 01:16 | 34.08432 | -117.45402 | 15033 ft | 303 kts | 250° |
| 2026-04-26 01:16 | 34.07829 | -117.47851 | 14567 ft | 304 kts | 250° |
| 2026-04-26 01:16 | 34.07232 | -117.50266 | 13994 ft | 301 kts | 251° |
| 2026-04-26 01:17 | 34.06632 | -117.52674 | 13460 ft | 297 kts | 250° |
| 2026-04-26 01:17 | 34.06032 | -117.55048 | 13014 ft | 293 kts | 249° |
| 2026-04-26 01:17 | 34.05438 | -117.57391 | 12574 ft | 292 kts | 250° |
| 2026-04-26 01:17 | 34.04843 | -117.59723 | 12137 ft | 291 kts | 250° |
| 2026-04-26 01:18 | 34.04235 | -117.62041 | 11988 ft | 290 kts | 249° |
| 2026-04-26 01:18 | 34.03630 | -117.64359 | 11997 ft | 290 kts | 249° |
| 2026-04-26 01:18 | 34.03031 | -117.66688 | 11989 ft | 291 kts | 250° |
| 2026-04-26 01:18 | 34.02443 | -117.68994 | 11544 ft | 291 kts | 250° |
| 2026-04-26 01:19 | 34.02069 | -117.71402 | 10954 ft | 287 kts | 260° |
| 2026-04-26 01:19 | 34.01851 | -117.73735 | 10385 ft | 281 kts | 261° |
| 2026-04-26 01:19 | 34.01628 | -117.76051 | 9811 ft | 276 kts | 261° |
| 2026-04-26 01:19 | 34.01406 | -117.78339 | 9241 ft | 273 kts | 262° |
| 2026-04-26 01:20 | 34.01193 | -117.80544 | 9029 ft | 255 kts | 262° |
| 2026-04-26 01:20 | 34.00997 | -117.82600 | 8879 ft | 238 kts | 262° |
| 2026-04-26 01:20 | 34.00807 | -117.84571 | 8654 ft | 242 kts | 262° |
| 2026-04-26 01:20 | 34.00606 | -117.86621 | 8372 ft | 242 kts | 262° |
| 2026-04-26 01:21 | 34.00408 | -117.88621 | 8053 ft | 240 kts | 262° |
| 2026-04-26 01:21 | 34.00211 | -117.90617 | 7755 ft | 238 kts | 262° |
| 2026-04-26 01:21 | 34.00014 | -117.92590 | 7455 ft | 237 kts | 262° |
| 2026-04-26 01:21 | 33.99813 | -117.94553 | 7165 ft | 234 kts | 261° |
| 2026-04-26 01:22 | 33.99598 | -117.96492 | 6871 ft | 232 kts | 262° |
| 2026-04-26 01:22 | 33.99401 | -117.98416 | 6578 ft | 231 kts | 262° |
| 2026-04-26 01:22 | 33.99213 | -118.00326 | 6289 ft | 229 kts | 262° |
| 2026-04-26 01:22 | 33.99028 | -118.02200 | 6094 ft | 227 kts | 262° |
| 2026-04-26 01:23 | 33.98840 | -118.04100 | 5916 ft | 228 kts | 262° |
| 2026-04-26 01:23 | 33.98653 | -118.05990 | 5638 ft | 226 kts | 262° |
| 2026-04-26 01:23 | 33.98467 | -118.07863 | 5351 ft | 225 kts | 262° |
| 2026-04-26 01:23 | 33.98281 | -118.09727 | 5040 ft | 224 kts | 262° |
| 2026-04-26 01:24 | 33.98096 | -118.11602 | 4756 ft | 224 kts | 262° |
| 2026-04-26 01:24 | 33.97909 | -118.13466 | 4456 ft | 224 kts | 262° |
| 2026-04-26 01:24 | 33.97721 | -118.15327 | 4153 ft | 223 kts | 262° |
| 2026-04-26 01:24 | 33.97538 | -118.17167 | 3853 ft | 220 kts | 262° |
| 2026-04-26 01:25 | 33.97355 | -118.18980 | 3561 ft | 215 kts | 262° |
| 2026-04-26 01:25 | 33.97179 | -118.20739 | 3294 ft | 207 kts | 262° |
| 2026-04-26 01:25 | 33.97010 | -118.22428 | 3022 ft | 201 kts | 262° |
| 2026-04-26 01:25 | 33.96848 | -118.24043 | 2773 ft | 188 kts | 262° |
| 2026-04-26 01:26 | 33.96694 | -118.25575 | 2519 ft | 181 kts | 262° |
| 2026-04-26 01:26 | 33.96547 | -118.27033 | 2285 ft | 170 kts | 262° |
| 2026-04-26 01:26 | 33.96407 | -118.28416 | 2064 ft | 166 kts | 262° |
| 2026-04-26 01:26 | 33.96272 | -118.29749 | 1858 ft | 157 kts | 261° |
| 2026-04-26 01:27 | 33.96141 | -118.31042 | 1649 ft | 154 kts | 261° |
| 2026-04-26 01:27 | 33.96014 | -118.32294 | 1440 ft | 143 kts | 261° |
| 2026-04-26 01:27 | 33.95897 | -118.33453 | 1258 ft | 137 kts | 261° |
| 2026-04-26 01:27 | 33.95783 | -118.34577 | 1082 ft | 134 kts | 261° |
| 2026-04-26 01:28 | 33.95671 | -118.35681 | 907 ft | 131 kts | 261° |
| 2026-04-26 01:28 | 33.95561 | -118.36757 | 729 ft | 128 kts | 262° |
| 2026-04-26 01:28 | 33.95453 | -118.37819 | 571 ft | 127 kts | 262° |
| 2026-04-26 01:28 | 33.95348 | -118.38860 | 380 ft | 127 kts | 263° |
| 2026-04-26 01:29 | 33.95235 | -118.39910 | 211 ft | 126 kts | 263° |
| 2026-04-26 01:29 | 33.95137 | -118.40926 | 129 ft | 111 kts | 262° |
| 2026-04-26 01:29 | 33.95059 | -118.41688 | 122 ft | 67 kts | 263° |
| 2026-04-26 01:29 | 33.95022 | -118.42055 | 126 ft | 30 kts | 263° |
| 2026-04-26 01:30 | 33.94997 | -118.42291 | 126 ft | 28 kts | 263° |
| 2026-04-26 01:30 | 33.94954 | -118.42509 | 126 ft | 26 kts | 244° |
| 2026-04-26 01:30 | 33.94865 | -118.42664 | 126 ft | 14 kts | 227° |
| 2026-04-26 01:30 | 33.94851 | -118.42681 | 126 ft | 0 kts | 225° |
| 2026-04-26 01:31 | 33.94839 | -118.42695 | 126 ft | 10 kts | 224° |
| 2026-04-26 01:32 | 33.94732 | -118.42779 | 126 ft | 22 kts | 196° |
| 2026-04-26 01:32 | 33.94636 | -118.42701 | 126 ft | 20 kts | 86° |
| 2026-04-26 01:32 | 33.94651 | -118.42522 | 126 ft | 23 kts | 83° |
| 2026-04-26 01:32 | 33.94673 | -118.42323 | 126 ft | 25 kts | 82° |
| 2026-04-26 01:33 | 33.94697 | -118.42106 | 126 ft | 27 kts | 83° |
| 2026-04-26 01:33 | 33.94719 | -118.41870 | 126 ft | 29 kts | 83° |
| 2026-04-26 01:33 | 33.94745 | -118.41618 | 126 ft | 31 kts | 83° |
| 2026-04-26 01:33 | 33.94780 | -118.41351 | 126 ft | 33 kts | 78° |
| 2026-04-26 01:34 | 33.94818 | -118.41074 | 126 ft | 31 kts | 82° |
| 2026-04-26 01:34 | 33.94843 | -118.40807 | 126 ft | 30 kts | 83° |
| 2026-04-26 01:34 | 33.94856 | -118.40684 | 126 ft | 5 kts | 82° |
| 2026-04-26 01:34 | 33.94857 | -118.40682 | 126 ft | 0 kts | 82° |
| 2026-04-26 01:35 | 33.94858 | -118.40671 | 126 ft | 2 kts | 83° |
| 2026-04-26 01:35 | 33.94861 | -118.40636 | 126 ft | 6 kts | 84° |
| 2026-04-26 01:35 | 33.94844 | -118.40603 | 126 ft | 0 kts | 174° |
| 2026-04-26 01:35 | 33.94834 | -118.40601 | 126 ft | 3 kts | 173° |
| 2026-04-26 01:36 | 33.94797 | -118.40591 | 126 ft | 7 kts | 164° |
| 2026-04-26 01:36 | 33.94748 | -118.40580 | 126 ft | 5 kts | 173° |
| 2026-04-26 01:36 | 33.94715 | -118.40575 | 126 ft | 5 kts | 173° |
| 2026-04-26 01:37 | 33.94636 | -118.40612 | 126 ft | 8 kts | 287° |
| 2026-04-26 01:37 | 33.94643 | -118.40638 | 126 ft | 0 kts | 286° |